sensor_id;sensor_type;location;lat;lon;timestamp;pressure;altitude;pressure_sealevel;temperature;humidity
19789;BME280;10054;59.332;18.244;2023-02-15T00:01:09;102307.42;;;2.35;100.00
19789;BME280;10054;59.332;18.244;2023-02-15T00:03:38;102306.55;;;2.38;100.00
19789;BME280;10054;59.332;18.244;2023-02-15T00:06:07;102304.81;;;2.38;100.00
19789;BME280;10054;59.332;18.244;2023-02-15T00:08:36;102301.33;;;2.39;100.00
19789;BME280;10054;59.332;18.244;2023-02-15T00:11:09;102302.63;;;2.41;100.00
19789;BME280;10054;59.332;18.244;2023-02-15T00:13:38;102294.81;;;2.44;100.00
19789;BME280;10054;59.332;18.244;2023-02-15T00:16:11;102296.11;;;2.45;100.00
19789;BME280;10054;59.332;18.244;2023-02-15T00:18:40;102292.20;;;2.44;100.00
19789;BME280;10054;59.332;18.244;2023-02-15T00:21:10;102287.00;;;2.45;100.00
19789;BME280;10054;59.332;18.244;2023-02-15T00:23:38;102283.08;;;2.48;100.00
19789;BME280;10054;59.332;18.244;2023-02-15T00:26:10;102280.03;;;2.50;100.00
19789;BME280;10054;59.332;18.244;2023-02-15T00:28:40;102284.81;;;2.51;100.00
19789;BME280;10054;59.332;18.244;2023-02-15T00:31:12;102280.91;;;2.52;100.00
19789;BME280;10054;59.332;18.244;2023-02-15T00:33:41;102286.11;;;2.54;100.00
19789;BME280;10054;59.332;18.244;2023-02-15T00:36:10;102280.02;;;2.55;100.00
19789;BME280;10054;59.332;18.244;2023-02-15T00:38:39;102276.12;;;2.53;100.00
19789;BME280;10054;59.332;18.244;2023-02-15T00:41:09;102272.22;;;2.53;100.00
19789;BME280;10054;59.332;18.244;2023-02-15T00:43:38;102271.77;;;2.55;100.00
19789;BME280;10054;59.332;18.244;2023-02-15T00:46:07;102270.47;;;2.57;100.00
19789;BME280;10054;59.332;18.244;2023-02-15T00:48:36;102269.60;;;2.56;100.00
19789;BME280;10054;59.332;18.244;2023-02-15T00:51:04;102270.91;;;2.56;100.00
19789;BME280;10054;59.332;18.244;2023-02-15T00:53:33;102264.82;;;2.57;100.00
19789;BME280;10054;59.332;18.244;2023-02-15T00:56:02;102266.55;;;2.60;100.00
19789;BME280;10054;59.332;18.244;2023-02-15T00:58:31;102267.42;;;2.59;100.00
19789;BME280;10054;59.332;18.244;2023-02-15T01:01:05;102259.17;;;2.59;100.00
19789;BME280;10054;59.332;18.244;2023-02-15T01:03:34;102254.83;;;2.61;100.00
19789;BME280;10054;59.332;18.244;2023-02-15T01:06:04;102258.29;;;2.63;100.00
19789;BME280;10054;59.332;18.244;2023-02-15T01:08:33;102255.68;;;2.63;100.00
19789;BME280;10054;59.332;18.244;2023-02-15T01:11:05;102253.52;;;2.63;100.00
19789;BME280;10054;59.332;18.244;2023-02-15T01:13:35;102250.91;;;2.64;100.00
19789;BME280;10054;59.332;18.244;2023-02-15T01:16:04;102246.99;;;2.64;100.00
19789;BME280;10054;59.332;18.244;2023-02-15T01:18:33;102245.69;;;2.64;100.00
19789;BME280;10054;59.332;18.244;2023-02-15T01:21:15;102247.87;;;2.63;100.00
19789;BME280;10054;59.332;18.244;2023-02-15T01:23:36;102247.44;;;2.62;100.00
19789;BME280;10054;59.332;18.244;2023-02-15T01:26:07;102240.92;;;2.62;100.00
19789;BME280;10054;59.332;18.244;2023-02-15T01:28:36;102231.81;;;2.61;100.00
19789;BME280;10054;59.332;18.244;2023-02-15T01:31:11;102238.33;;;2.59;100.00
19789;BME280;10054;59.332;18.244;2023-02-15T01:33:39;102241.80;;;2.61;100.00
19789;BME280;10054;59.332;18.244;2023-02-15T01:36:09;102230.50;;;2.62;100.00
19789;BME280;10054;59.332;18.244;2023-02-15T01:38:39;102228.75;;;2.64;100.00
19789;BME280;10054;59.332;18.244;2023-02-15T01:41:08;102232.64;;;2.71;100.00
19789;BME280;10054;59.332;18.244;2023-02-15T01:43:59;102232.64;;;2.71;100.00
19789;BME280;10054;59.332;18.244;2023-02-15T01:46:47;102230.03;;;2.71;100.00
19789;BME280;10054;59.332;18.244;2023-02-15T01:49:16;102224.42;;;2.63;100.00
19789;BME280;10054;59.332;18.244;2023-02-15T01:51:48;102220.52;;;2.60;100.00
19789;BME280;10054;59.332;18.244;2023-02-15T01:54:22;102224.44;;;2.57;100.00
19789;BME280;10054;59.332;18.244;2023-02-15T01:56:57;102220.54;;;2.56;100.00
19789;BME280;10054;59.332;18.244;2023-02-15T01:59:26;102213.16;;;2.55;100.00
19789;BME280;10054;59.332;18.244;2023-02-15T02:01:57;102205.35;;;2.54;100.00
19789;BME280;10054;59.332;18.244;2023-02-15T02:04:29;102199.72;;;2.51;100.00
19789;BME280;10054;59.332;18.244;2023-02-15T02:06:58;102193.64;;;2.51;100.00
19789;BME280;10054;59.332;18.244;2023-02-15T02:09:28;102188.00;;;2.50;100.00
19789;BME280;10054;59.332;18.244;2023-02-15T02:11:57;102187.13;;;2.51;100.00
19789;BME280;10054;59.332;18.244;2023-02-15T02:14:26;102188.00;;;2.51;100.00
19789;BME280;10054;59.332;18.244;2023-02-15T02:31:36;102174.98;;;2.48;100.00
19789;BME280;10054;59.332;18.244;2023-02-15T02:34:11;102172.37;;;2.50;100.00
19789;BME280;10054;59.332;18.244;2023-02-15T02:36:52;102173.67;;;2.51;100.00
19789;BME280;10054;59.332;18.244;2023-02-15T02:42:14;102176.69;;;2.55;100.00
19789;BME280;10054;59.332;18.244;2023-02-15T02:44:56;102168.87;;;2.55;100.00
19789;BME280;10054;59.332;18.244;2023-02-15T02:47:40;102157.16;;;2.55;100.00
19789;BME280;10054;59.332;18.244;2023-02-15T02:50:13;102157.59;;;2.55;100.00
19789;BME280;10054;59.332;18.244;2023-02-15T02:52:42;102158.45;;;2.55;100.00
19789;BME280;10054;59.332;18.244;2023-02-15T02:55:16;102153.23;;;2.57;100.00
19789;BME280;10054;59.332;18.244;2023-02-15T02:57:51;102152.77;;;2.63;100.00
19789;BME280;10054;59.332;18.244;2023-02-15T03:00:19;102147.11;;;2.66;100.00
19789;BME280;10054;59.332;18.244;2023-02-15T03:02:56;102154.07;;;2.63;100.00
19789;BME280;10054;59.332;18.244;2023-02-15T03:05:23;102150.62;;;2.60;100.00
19789;BME280;10054;59.332;18.244;2023-02-15T03:07:54;102145.84;;;2.59;100.00
19789;BME280;10054;59.332;18.244;2023-02-15T03:10:25;102150.62;;;2.60;100.00
19789;BME280;10054;59.332;18.244;2023-02-15T03:12:54;102150.18;;;2.60;100.00
19789;BME280;10054;59.332;18.244;2023-02-15T03:15:26;102144.55;;;2.59;100.00
19789;BME280;10054;59.332;18.244;2023-02-15T03:17:58;102148.45;;;2.59;100.00
19789;BME280;10054;59.332;18.244;2023-02-15T03:20:32;102148.87;;;2.60;100.00
19789;BME280;10054;59.332;18.244;2023-02-15T03:23:06;102148.02;;;2.60;100.00
19789;BME280;10054;59.332;18.244;2023-02-15T03:25:38;102146.72;;;2.58;100.00
19789;BME280;10054;59.332;18.244;2023-02-15T03:28:15;102140.64;;;2.58;100.00
19789;BME280;10054;59.332;18.244;2023-02-15T03:30:45;102148.02;;;2.58;100.00
19789;BME280;10054;59.332;18.244;2023-02-15T03:33:16;102146.28;;;2.59;100.00
19789;BME280;10054;59.332;18.244;2023-02-15T03:35:59;102141.95;;;2.58;100.00
19789;BME280;10054;59.332;18.244;2023-02-15T03:38:41;102145.85;;;2.58;100.00
19789;BME280;10054;59.332;18.244;2023-02-15T03:41:06;102145.41;;;2.58;100.00
19789;BME280;10054;59.332;18.244;2023-02-15T03:46:22;102130.66;;;2.57;100.00
19789;BME280;10054;59.332;18.244;2023-02-15T03:48:55;102124.58;;;2.58;100.00
19789;BME280;10054;59.332;18.244;2023-02-15T03:51:21;102119.36;;;2.58;100.00
19789;BME280;10054;59.332;18.244;2023-02-15T03:54:08;102122.83;;;2.59;100.00
19789;BME280;10054;59.332;18.244;2023-02-15T03:56:40;102119.80;;;2.58;100.00
19789;BME280;10054;59.332;18.244;2023-02-15T03:59:09;102117.19;;;2.59;100.00
19789;BME280;10054;59.332;18.244;2023-02-15T04:04:38;102108.94;;;2.58;100.00
19789;BME280;10054;59.332;18.244;2023-02-15T04:07:09;102110.68;;;2.58;100.00
19789;BME280;10054;59.332;18.244;2023-02-15T04:09:38;102116.76;;;2.58;100.00
19789;BME280;10054;59.332;18.244;2023-02-15T04:12:24;102110.25;;;2.58;100.00
19789;BME280;10054;59.332;18.244;2023-02-15T04:14:53;102099.39;;;2.59;100.00
19789;BME280;10054;59.332;18.244;2023-02-15T04:17:39;102093.31;;;2.58;100.00
19789;BME280;10054;59.332;18.244;2023-02-15T04:20:08;102096.34;;;2.59;100.00
19789;BME280;10054;59.332;18.244;2023-02-15T04:22:54;102092.87;;;2.60;100.00
19789;BME280;10054;59.332;18.244;2023-02-15T04:25:41;102085.91;;;2.61;100.00
19789;BME280;10054;59.332;18.244;2023-02-15T04:28:09;102085.91;;;2.61;100.00
19789;BME280;10054;59.332;18.244;2023-02-15T04:30:38;102086.78;;;2.61;100.00
19789;BME280;10054;59.332;18.244;2023-02-15T04:33:06;102083.73;;;2.63;100.00
19789;BME280;10054;59.332;18.244;2023-02-15T04:35:36;102083.30;;;2.62;100.00
19789;BME280;10054;59.332;18.244;2023-02-15T04:38:05;102079.39;;;2.62;100.00
19789;BME280;10054;59.332;18.244;2023-02-15T04:40:35;102078.08;;;2.64;100.00
19789;BME280;10054;59.332;18.244;2023-02-15T04:43:03;102081.11;;;2.65;100.00
19789;BME280;10054;59.332;18.244;2023-02-15T04:45:32;102079.82;;;2.63;100.00
19789;BME280;10054;59.332;18.244;2023-02-15T04:48:00;102074.63;;;2.62;100.00
19789;BME280;10054;59.332;18.244;2023-02-15T04:50:29;102077.66;;;2.63;100.00
19789;BME280;10054;59.332;18.244;2023-02-15T04:52:57;102071.56;;;2.64;100.00
19789;BME280;10054;59.332;18.244;2023-02-15T04:55:26;102067.23;;;2.63;100.00
19789;BME280;10054;59.332;18.244;2023-02-15T04:57:54;102073.75;;;2.63;100.00
19789;BME280;10054;59.332;18.244;2023-02-15T05:00:26;102073.31;;;2.62;100.00
19789;BME280;10054;59.332;18.244;2023-02-15T05:02:54;102068.55;;;2.61;100.00
19789;BME280;10054;59.332;18.244;2023-02-15T05:05:23;102065.08;;;2.61;100.00
19789;BME280;10054;59.332;18.244;2023-02-15T05:07:52;102065.09;;;2.59;100.00
19789;BME280;10054;59.332;18.244;2023-02-15T05:10:21;102066.38;;;2.61;100.00
19789;BME280;10054;59.332;18.244;2023-02-15T05:12:49;102065.92;;;2.63;100.00
19789;BME280;10054;59.332;18.244;2023-02-15T05:15:18;102059.85;;;2.62;100.00
19789;BME280;10054;59.332;18.244;2023-02-15T05:17:46;102057.25;;;2.62;100.00
19789;BME280;10054;59.332;18.244;2023-02-15T05:20:17;102060.73;;;2.61;100.00
19789;BME280;10054;59.332;18.244;2023-02-15T05:22:46;102055.07;;;2.63;100.00
19789;BME280;10054;59.332;18.244;2023-02-15T05:25:15;102056.38;;;2.63;100.00
19789;BME280;10054;59.332;18.244;2023-02-15T05:28:01;102049.88;;;2.62;100.00
19789;BME280;10054;59.332;18.244;2023-02-15T05:30:58;102058.55;;;2.62;100.00
19789;BME280;10054;59.332;18.244;2023-02-15T05:33:19;102049.00;;;2.63;100.00
19789;BME280;10054;59.332;18.244;2023-02-15T05:35:48;102053.34;;;2.62;100.00
19789;BME280;10054;59.332;18.244;2023-02-15T05:38:16;102050.76;;;2.59;100.00
19789;BME280;10054;59.332;18.244;2023-02-15T05:40:45;102050.33;;;2.58;100.00
19789;BME280;10054;59.332;18.244;2023-02-15T05:43:13;102055.09;;;2.60;100.00
19789;BME280;10054;59.332;18.244;2023-02-15T05:45:50;102042.06;;;2.60;100.00
19789;BME280;10054;59.332;18.244;2023-02-15T05:48:21;102037.30;;;2.58;100.00
19789;BME280;10054;59.332;18.244;2023-02-15T05:51:02;102047.72;;;2.58;100.00
19789;BME280;10054;59.332;18.244;2023-02-15T05:53:32;102048.58;;;2.60;100.00
19789;BME280;10054;59.332;18.244;2023-02-15T05:56:02;102050.75;;;2.61;100.00
19789;BME280;10054;59.332;18.244;2023-02-15T05:58:41;102045.55;;;2.59;100.00
19789;BME280;10054;59.332;18.244;2023-02-15T06:01:11;102041.21;;;2.58;100.00
19789;BME280;10054;59.332;18.244;2023-02-15T06:03:40;102034.25;;;2.60;100.00
19789;BME280;10054;59.332;18.244;2023-02-15T06:06:10;102032.09;;;2.58;100.00
19789;BME280;10054;59.332;18.244;2023-02-15T06:08:39;102036.86;;;2.59;100.00
19789;BME280;10054;59.332;18.244;2023-02-15T06:11:08;102028.62;;;2.58;100.00
19789;BME280;10054;59.332;18.244;2023-02-15T06:13:38;102033.81;;;2.61;100.00
19789;BME280;10054;59.332;18.244;2023-02-15T06:16:07;102033.37;;;2.61;100.00
19789;BME280;10054;59.332;18.244;2023-02-15T06:18:36;102029.91;;;2.59;100.00
19789;BME280;10054;59.332;18.244;2023-02-15T06:21:07;102029.48;;;2.60;100.00
19789;BME280;10054;59.332;18.244;2023-02-15T06:23:35;102026.42;;;2.62;100.00
19789;BME280;10054;59.332;18.244;2023-02-15T06:26:04;102026.41;;;2.63;100.00
19789;BME280;10054;59.332;18.244;2023-02-15T06:28:32;102020.34;;;2.63;100.00
19789;BME280;10054;59.332;18.244;2023-02-15T06:31:01;102020.33;;;2.64;100.00
19789;BME280;10054;59.332;18.244;2023-02-15T06:33:29;102022.06;;;2.66;100.00
19789;BME280;10054;59.332;18.244;2023-02-15T06:36:00;102013.80;;;2.66;100.00
19789;BME280;10054;59.332;18.244;2023-02-15T06:38:29;102011.20;;;2.64;100.00
19789;BME280;10054;59.332;18.244;2023-02-15T06:40:57;102008.17;;;2.63;100.00
19789;BME280;10054;59.332;18.244;2023-02-15T06:43:26;102015.11;;;2.64;100.00
19789;BME280;10054;59.332;18.244;2023-02-15T06:45:54;102012.48;;;2.68;100.00
19789;BME280;10054;59.332;18.244;2023-02-15T06:48:23;102008.16;;;2.67;100.00
19789;BME280;10054;59.332;18.244;2023-02-15T06:50:52;102007.71;;;2.67;100.00
19789;BME280;10054;59.332;18.244;2023-02-15T06:53:20;102006.40;;;2.69;100.00
19789;BME280;10054;59.332;18.244;2023-02-15T06:55:49;102016.37;;;2.71;100.00
19789;BME280;10054;59.332;18.244;2023-02-15T06:58:17;102014.64;;;2.70;100.00
19789;BME280;10054;59.332;18.244;2023-02-15T07:00:46;102018.98;;;2.69;100.00
19789;BME280;10054;59.332;18.244;2023-02-15T07:03:16;102011.19;;;2.68;100.00
19789;BME280;10054;59.332;18.244;2023-02-15T07:05:45;102014.20;;;2.70;100.00
19789;BME280;10054;59.332;18.244;2023-02-15T07:08:15;102014.19;;;2.72;100.00
19789;BME280;10054;59.332;18.244;2023-02-15T07:10:44;102007.69;;;2.70;100.00
19789;BME280;10054;59.332;18.244;2023-02-15T07:13:13;102011.59;;;2.72;100.00
19789;BME280;10054;59.332;18.244;2023-02-15T07:15:42;102017.21;;;2.74;100.00
19789;BME280;10054;59.332;18.244;2023-02-15T07:18:11;102014.17;;;2.75;100.00
19789;BME280;10054;59.332;18.244;2023-02-15T07:20:40;102009.83;;;2.74;100.00
19789;BME280;10054;59.332;18.244;2023-02-15T07:23:09;102006.79;;;2.74;100.00
19789;BME280;10054;59.332;18.244;2023-02-15T07:25:39;102015.46;;;2.76;100.00
19789;BME280;10054;59.332;18.244;2023-02-15T07:28:07;102016.75;;;2.78;100.00
19789;BME280;10054;59.332;18.244;2023-02-15T07:30:36;102018.48;;;2.79;100.00
19789;BME280;10054;59.332;18.244;2023-02-15T07:33:05;102021.97;;;2.78;100.00
19789;BME280;10054;59.332;18.244;2023-02-15T07:35:53;102018.92;;;2.78;100.00
19789;BME280;10054;59.332;18.244;2023-02-15T07:38:25;102014.57;;;2.79;100.00
19789;BME280;10054;59.332;18.244;2023-02-15T07:41:04;102010.65;;;2.80;100.00
19789;BME280;10054;59.332;18.244;2023-02-15T07:43:29;102009.78;;;2.80;100.00
19789;BME280;10054;59.332;18.244;2023-02-15T07:46:03;102007.18;;;2.80;100.00
19789;BME280;10054;59.332;18.244;2023-02-15T07:48:32;102007.61;;;2.81;100.00
19789;BME280;10054;59.332;18.244;2023-02-15T07:51:03;102005.85;;;2.83;100.00
19789;BME280;10054;59.332;18.244;2023-02-15T07:53:33;101999.34;;;2.81;100.00
19789;BME280;10054;59.332;18.244;2023-02-15T07:56:04;102000.22;;;2.82;100.00
19789;BME280;10054;59.332;18.244;2023-02-15T07:58:34;102000.20;;;2.83;100.00
19789;BME280;10054;59.332;18.244;2023-02-15T08:01:24;102001.50;;;2.83;100.00
19789;BME280;10054;59.332;18.244;2023-02-15T08:03:57;102003.69;;;2.82;100.00
19789;BME280;10054;59.332;18.244;2023-02-15T08:06:29;101994.14;;;2.81;100.00
19789;BME280;10054;59.332;18.244;2023-02-15T08:08:57;101997.61;;;2.82;100.00
19789;BME280;10054;59.332;18.244;2023-02-15T08:11:28;101998.46;;;2.84;100.00
19789;BME280;10054;59.332;18.244;2023-02-15T08:14:03;101995.85;;;2.84;100.00
19789;BME280;10054;59.332;18.244;2023-02-15T08:19:09;101993.69;;;2.83;100.00
19789;BME280;10054;59.332;18.244;2023-02-15T08:21:40;101990.20;;;2.84;100.00
19789;BME280;10054;59.332;18.244;2023-02-15T08:24:10;101984.55;;;2.85;100.00
19789;BME280;10054;59.332;18.244;2023-02-15T08:26:40;101981.50;;;2.85;100.00
19789;BME280;10054;59.332;18.244;2023-02-15T08:29:10;101982.37;;;2.86;100.00
19789;BME280;10054;59.332;18.244;2023-02-15T08:31:39;101978.89;;;2.87;100.00
19789;BME280;10054;59.332;18.244;2023-02-15T08:34:10;101977.99;;;2.89;100.00
19789;BME280;10054;59.332;18.244;2023-02-15T08:36:39;101974.50;;;2.92;100.00
19789;BME280;10054;59.332;18.244;2023-02-15T08:39:09;101977.10;;;2.92;100.00
19789;BME280;10054;59.332;18.244;2023-02-15T08:41:39;101967.12;;;2.90;100.00
19789;BME280;10054;59.332;18.244;2023-02-15T08:44:09;101972.78;;;2.89;100.00
19789;BME280;10054;59.332;18.244;2023-02-15T08:46:40;101966.70;;;2.89;100.00
19789;BME280;10054;59.332;18.244;2023-02-15T08:49:19;101963.66;;;2.89;100.00
19789;BME280;10054;59.332;18.244;2023-02-15T08:51:43;101965.81;;;2.91;100.00
19789;BME280;10054;59.332;18.244;2023-02-15T08:54:15;101962.75;;;2.93;100.00
19789;BME280;10054;59.332;18.244;2023-02-15T08:56:45;101964.42;;;2.97;100.00
19789;BME280;10054;59.332;18.244;2023-02-15T08:59:19;101957.01;;;3.00;100.00
19789;BME280;10054;59.332;18.244;2023-02-15T09:01:50;101963.92;;;3.04;100.00
19789;BME280;10054;59.332;18.244;2023-02-15T09:04:20;101962.19;;;3.03;100.00
19789;BME280;10054;59.332;18.244;2023-02-15T09:06:50;101959.63;;;2.98;100.00
19789;BME280;10054;59.332;18.244;2023-02-15T09:09:20;101955.34;;;2.96;100.00
19789;BME280;10054;59.332;18.244;2023-02-15T09:11:50;101962.75;;;2.93;100.00
19789;BME280;10054;59.332;18.244;2023-02-15T09:14:20;101957.54;;;2.93;100.00
19789;BME280;10054;59.332;18.244;2023-02-15T09:16:52;101959.28;;;2.93;100.00
19789;BME280;10054;59.332;18.244;2023-02-15T09:19:22;101951.45;;;2.94;100.00
19789;BME280;10054;59.332;18.244;2023-02-15T09:21:51;101954.94;;;2.93;100.00
19789;BME280;10054;59.332;18.244;2023-02-15T09:24:20;101953.64;;;2.92;100.00
19789;BME280;10054;59.332;18.244;2023-02-15T09:26:49;101951.92;;;2.91;100.00
19789;BME280;10054;59.332;18.244;2023-02-15T09:29:19;101951.92;;;2.91;100.00
19789;BME280;10054;59.332;18.244;2023-02-15T09:31:49;101951.49;;;2.90;100.00
19789;BME280;10054;59.332;18.244;2023-02-15T09:34:20;101947.58;;;2.90;100.00
19789;BME280;10054;59.332;18.244;2023-02-15T09:36:50;101944.98;;;2.90;100.00
19789;BME280;10054;59.332;18.244;2023-02-15T09:39:21;101944.96;;;2.91;100.00
19789;BME280;10054;59.332;18.244;2023-02-15T09:42:01;101941.05;;;2.91;100.00
19789;BME280;10054;59.332;18.244;2023-02-15T09:58:34;101924.52;;;2.94;100.00
19789;BME280;10054;59.332;18.244;2023-02-15T10:18:29;101904.02;;;3.00;100.00
19789;BME280;10054;59.332;18.244;2023-02-15T10:21:10;101903.64;;;2.97;100.00
19789;BME280;10054;59.332;18.244;2023-02-15T10:26:28;101897.58;;;2.95;100.00
19789;BME280;10054;59.332;18.244;2023-02-15T10:29:08;101894.98;;;2.93;100.00
19789;BME280;10054;59.332;18.244;2023-02-15T10:31:49;101891.94;;;2.94;100.00
19789;BME280;10054;59.332;18.244;2023-02-15T10:34:35;101891.50;;;2.94;100.00
19789;BME280;10054;59.332;18.244;2023-02-15T10:40:08;101882.78;;;2.97;100.00
19789;BME280;10054;59.332;18.244;2023-02-15T10:42:47;101877.09;;;2.97;100.00
19789;BME280;10054;59.332;18.244;2023-02-15T10:45:32;101880.55;;;3.00;100.00
19789;BME280;10054;59.332;18.244;2023-02-15T10:48:01;101877.94;;;3.00;100.00
19789;BME280;10054;59.332;18.244;2023-02-15T10:51:02;101874.47;;;2.99;100.00
19789;BME280;10054;59.332;18.244;2023-02-15T10:53:28;101869.26;;;2.99;100.00
19789;BME280;10054;59.332;18.244;2023-02-15T10:56:15;101866.21;;;3.00;100.00
19789;BME280;10054;59.332;18.244;2023-02-15T11:07:02;101846.19;;;3.03;100.00
19789;BME280;10054;59.332;18.244;2023-02-15T11:09:39;101843.12;;;3.05;100.00
19789;BME280;10054;59.332;18.244;2023-02-15T11:12:16;101848.31;;;3.07;100.00
19789;BME280;10054;59.332;18.244;2023-02-15T11:17:26;101837.41;;;3.10;100.00
19789;BME280;10054;59.332;18.244;2023-02-15T11:20:07;101839.94;;;3.16;100.00
19789;BME280;10054;59.332;18.244;2023-02-15T11:22:33;101831.97;;;3.28;100.00
19789;BME280;10054;59.332;18.244;2023-02-15T11:25:10;101831.08;;;3.29;100.00
19789;BME280;10054;59.332;18.244;2023-02-15T11:27:34;101832.00;;;3.25;100.00
19789;BME280;10054;59.332;18.244;2023-02-15T11:30:18;101831.19;;;3.22;100.00
19789;BME280;10054;59.332;18.244;2023-02-15T11:32:46;101829.45;;;3.21;100.00
19789;BME280;10054;59.332;18.244;2023-02-15T11:35:36;101829.03;;;3.20;100.00
19789;BME280;10054;59.332;18.244;2023-02-15T11:38:17;101835.13;;;3.19;100.00
19789;BME280;10054;59.332;18.244;2023-02-15T11:43:30;101824.76;;;3.14;100.00
19789;BME280;10054;59.332;18.244;2023-02-15T11:45:54;101825.63;;;3.15;100.00
19789;BME280;10054;59.332;18.244;2023-02-15T11:48:23;101820.84;;;3.14;100.00
19789;BME280;10054;59.332;18.244;2023-02-15T11:50:52;101813.01;;;3.16;100.00
19789;BME280;10054;59.332;18.244;2023-02-15T11:53:22;101817.78;;;3.16;100.00
19789;BME280;10054;59.332;18.244;2023-02-15T11:55:53;101807.35;;;3.16;100.00
19789;BME280;10054;59.332;18.244;2023-02-15T12:03:39;101813.45;;;3.15;100.00
19789;BME280;10054;59.332;18.244;2023-02-15T12:06:02;101801.30;;;3.14;100.00
19789;BME280;10054;59.332;18.244;2023-02-15T12:08:43;101806.95;;;3.14;100.00
19789;BME280;10054;59.332;18.244;2023-02-15T12:11:38;101803.02;;;3.15;100.00
19789;BME280;10054;59.332;18.244;2023-02-15T12:14:07;101808.66;;;3.16;100.00
19789;BME280;10054;59.332;18.244;2023-02-15T12:16:48;101805.19;;;3.16;100.00
19789;BME280;10054;59.332;18.244;2023-02-15T12:21:55;101792.48;;;3.23;100.00
19789;BME280;10054;59.332;18.244;2023-02-15T12:24:28;101787.63;;;3.28;100.00
19789;BME280;10054;59.332;18.244;2023-02-15T12:27:15;101787.88;;;3.42;100.00
19789;BME280;10054;59.332;18.244;2023-02-15T12:29:49;101787.35;;;3.48;100.00
19789;BME280;10054;59.332;18.244;2023-02-15T12:32:26;101777.38;;;3.46;100.00
19789;BME280;10054;59.332;18.244;2023-02-15T12:35:08;101774.88;;;3.39;100.00
19789;BME280;10054;59.332;18.244;2023-02-15T12:37:37;101763.63;;;3.35;100.00
19789;BME280;10054;59.332;18.244;2023-02-15T12:40:24;101767.59;;;3.32;100.00
19789;BME280;10054;59.332;18.244;2023-02-15T12:42:56;101761.51;;;3.32;100.00
19789;BME280;10054;59.332;18.244;2023-02-15T12:45:31;101757.62;;;3.30;100.00
19789;BME280;10054;59.332;18.244;2023-02-15T12:48:18;101755.92;;;3.27;100.00
19789;BME280;10054;59.332;18.244;2023-02-15T12:50:49;101758.53;;;3.27;100.00
19789;BME280;10054;59.332;18.244;2023-02-15T12:53:23;101751.16;;;3.25;100.00
19789;BME280;10054;59.332;18.244;2023-02-15T12:56:01;101755.96;;;3.24;100.00
19789;BME280;10054;59.332;18.244;2023-02-15T12:58:32;101748.58;;;3.24;100.00
19789;BME280;10054;59.332;18.244;2023-02-15T13:01:16;101746.41;;;3.23;100.00
19789;BME280;10054;59.332;18.244;2023-02-15T13:04:01;101751.65;;;3.22;100.00
19789;BME280;10054;59.332;18.244;2023-02-15T13:06:32;101741.66;;;3.21;100.00
19789;BME280;10054;59.332;18.244;2023-02-15T13:09:17;101739.94;;;3.20;100.00
19789;BME280;10054;59.332;18.244;2023-02-15T13:11:46;101730.83;;;3.19;100.00
19789;BME280;10054;59.332;18.244;2023-02-15T13:16:51;101728.27;;;3.16;100.00
19789;BME280;10054;59.332;18.244;2023-02-15T13:21:55;101725.69;;;3.14;100.00
19789;BME280;10054;59.332;18.244;2023-02-15T13:24:37;101731.31;;;3.15;100.00
19789;BME280;10054;59.332;18.244;2023-02-15T13:27:10;101726.98;;;3.14;100.00
19789;BME280;10054;59.332;18.244;2023-02-15T13:29:38;101719.59;;;3.15;100.00
19789;BME280;10054;59.332;18.244;2023-02-15T13:32:28;101726.02;;;3.21;100.00
19789;BME280;10054;59.332;18.244;2023-02-15T13:35:00;101717.24;;;3.27;100.00
19789;BME280;10054;59.332;18.244;2023-02-15T13:40:37;101709.95;;;3.20;100.00
19789;BME280;10054;59.332;18.244;2023-02-15T13:43:10;101714.33;;;3.18;100.00
19789;BME280;10054;59.332;18.244;2023-02-15T13:46:02;101709.60;;;3.15;100.00
19789;BME280;10054;59.332;18.244;2023-02-15T13:48:51;101710.92;;;3.13;100.00
19789;BME280;10054;59.332;18.244;2023-02-15T13:57:15;101699.30;;;3.06;100.00
19789;BME280;10054;59.332;18.244;2023-02-15T14:06:17;101695.02;;;3.02;100.00
19789;BME280;10054;59.332;18.244;2023-02-15T14:11:27;101695.55;;;2.96;100.00
19789;BME280;10054;59.332;18.244;2023-02-15T14:14:29;101689.92;;;2.95;100.00
19789;BME280;10054;59.332;18.244;2023-02-15T14:19:35;101692.59;;;2.91;100.00
19789;BME280;10054;59.332;18.244;2023-02-15T14:22:31;101686.53;;;2.89;100.00
19789;BME280;10054;59.332;18.244;2023-02-15T14:30:20;101687.44;;;2.86;100.00
19789;BME280;10054;59.332;18.244;2023-02-15T14:32:56;101676.62;;;2.84;100.00
19789;BME280;10054;59.332;18.244;2023-02-15T14:35:27;101679.12;;;2.91;100.00
19789;BME280;10054;59.332;18.244;2023-02-15T14:38:19;101673.44;;;2.93;100.00
19789;BME280;10054;59.332;18.244;2023-02-15T14:43:47;101675.73;;;2.85;100.00
19789;BME280;10054;59.332;18.244;2023-02-15T14:51:58;101664.98;;;2.78;100.00
19789;BME280;10054;59.332;18.244;2023-02-15T15:07:52;101648.66;;;2.63;100.00
19789;BME280;10054;59.332;18.244;2023-02-15T15:12:58;101641.80;;;2.58;100.00
19789;BME280;10054;59.332;18.244;2023-02-15T15:18:05;101640.09;;;2.55;100.00
19789;BME280;10054;59.332;18.244;2023-02-15T15:23:45;101637.52;;;2.52;100.00
19789;BME280;10054;59.332;18.244;2023-02-15T15:26:25;101644.05;;;2.51;100.00
19789;BME280;10054;59.332;18.244;2023-02-15T15:28:56;101635.40;;;2.49;100.00
19789;BME280;10054;59.332;18.244;2023-02-15T15:34:37;101637.56;;;2.49;100.00
19789;BME280;10054;59.332;18.244;2023-02-15T15:37:20;101634.38;;;2.60;100.00